sensor_id;sensor_type;location;lat;lon;timestamp;temperature;humidity
11855;DHT22;5987;53.140;8.904;2022-08-11T00:01:47;18.80;99.90
11855;DHT22;5987;53.140;8.904;2022-08-11T00:04:55;18.80;99.90
11855;DHT22;5987;53.140;8.904;2022-08-11T00:08:04;18.80;99.90
11855;DHT22;5987;53.140;8.904;2022-08-11T00:11:09;18.70;99.90
11855;DHT22;5987;53.140;8.904;2022-08-11T00:14:17;18.70;99.90
11855;DHT22;5987;53.140;8.904;2022-08-11T00:17:27;18.70;99.90
11855;DHT22;5987;53.140;8.904;2022-08-11T00:20:37;18.60;99.90
11855;DHT22;5987;53.140;8.904;2022-08-11T00:23:45;18.60;99.90
11855;DHT22;5987;53.140;8.904;2022-08-11T00:26:55;18.60;99.90
11855;DHT22;5987;53.140;8.904;2022-08-11T00:29:59;18.60;99.90
11855;DHT22;5987;53.140;8.904;2022-08-11T00:33:04;18.50;99.90
11855;DHT22;5987;53.140;8.904;2022-08-11T00:36:14;18.50;99.90
11855;DHT22;5987;53.140;8.904;2022-08-11T00:39:26;18.50;99.90
11855;DHT22;5987;53.140;8.904;2022-08-11T00:42:42;18.40;99.90
11855;DHT22;5987;53.140;8.904;2022-08-11T00:46:10;18.40;99.90
11855;DHT22;5987;53.140;8.904;2022-08-11T00:49:32;18.40;99.90
11855;DHT22;5987;53.140;8.904;2022-08-11T00:53:07;18.30;99.90
11855;DHT22;5987;53.140;8.904;2022-08-11T01:00:57;18.30;99.90
11855;DHT22;5987;53.140;8.904;2022-08-11T01:08:54;18.20;99.90
11855;DHT22;5987;53.140;8.904;2022-08-11T01:12:31;18.20;99.90
11855;DHT22;5987;53.140;8.904;2022-08-11T01:20:14;18.10;99.90
11855;DHT22;5987;53.140;8.904;2022-08-11T01:32:13;17.70;99.90
11855;DHT22;5987;53.140;8.904;2022-08-11T01:36:05;17.70;99.90
11855;DHT22;5987;53.140;8.904;2022-08-11T01:39:50;17.50;99.90
11855;DHT22;5987;53.140;8.904;2022-08-11T01:43:47;17.50;99.90
11855;DHT22;5987;53.140;8.904;2022-08-11T01:47:34;17.60;99.90
11855;DHT22;5987;53.140;8.904;2022-08-11T01:51:19;17.50;99.90
11855;DHT22;5987;53.140;8.904;2022-08-11T01:54:37;17.50;99.90
11855;DHT22;5987;53.140;8.904;2022-08-11T01:57:49;17.50;99.90
11855;DHT22;5987;53.140;8.904;2022-08-11T02:01:09;17.40;99.90
11855;DHT22;5987;53.140;8.904;2022-08-11T02:04:30;17.40;99.90
11855;DHT22;5987;53.140;8.904;2022-08-11T02:07:51;17.30;99.90
11855;DHT22;5987;53.140;8.904;2022-08-11T02:11:14;17.20;99.90
11855;DHT22;5987;53.140;8.904;2022-08-11T02:14:42;17.20;99.90
11855;DHT22;5987;53.140;8.904;2022-08-11T02:18:12;17.20;99.90
11855;DHT22;5987;53.140;8.904;2022-08-11T02:21:29;17.00;99.90
11855;DHT22;5987;53.140;8.904;2022-08-11T02:25:06;16.90;99.90
11855;DHT22;5987;53.140;8.904;2022-08-11T02:28:18;16.90;99.90
11855;DHT22;5987;53.140;8.904;2022-08-11T02:31:41;16.90;99.90
11855;DHT22;5987;53.140;8.904;2022-08-11T02:35:38;16.80;99.90
11855;DHT22;5987;53.140;8.904;2022-08-11T02:38:52;16.80;99.90
11855;DHT22;5987;53.140;8.904;2022-08-11T02:42:15;16.90;99.90
11855;DHT22;5987;53.140;8.904;2022-08-11T02:45:44;16.70;99.90
11855;DHT22;5987;53.140;8.904;2022-08-11T02:49:04;16.60;99.90
11855;DHT22;5987;53.140;8.904;2022-08-11T02:52:45;16.60;99.90
11855;DHT22;5987;53.140;8.904;2022-08-11T02:56:00;16.50;99.90
11855;DHT22;5987;53.140;8.904;2022-08-11T02:59:24;16.40;99.90
11855;DHT22;5987;53.140;8.904;2022-08-11T03:03:06;16.40;99.90
11855;DHT22;5987;53.140;8.904;2022-08-11T03:06:28;16.30;99.90
11855;DHT22;5987;53.140;8.904;2022-08-11T03:09:45;16.30;99.90
11855;DHT22;5987;53.140;8.904;2022-08-11T03:13:03;16.30;99.90
11855;DHT22;5987;53.140;8.904;2022-08-11T03:16:50;16.20;99.90
11855;DHT22;5987;53.140;8.904;2022-08-11T03:20:10;16.30;99.90
11855;DHT22;5987;53.140;8.904;2022-08-11T03:23:47;16.30;99.90
11855;DHT22;5987;53.140;8.904;2022-08-11T03:27:04;16.30;99.90
11855;DHT22;5987;53.140;8.904;2022-08-11T03:30:14;16.20;99.90
11855;DHT22;5987;53.140;8.904;2022-08-11T03:33:25;16.20;99.90
11855;DHT22;5987;53.140;8.904;2022-08-11T03:37:26;16.30;99.90
11855;DHT22;5987;53.140;8.904;2022-08-11T03:41:05;16.20;99.90
11855;DHT22;5987;53.140;8.904;2022-08-11T03:45:06;16.20;99.90
11855;DHT22;5987;53.140;8.904;2022-08-11T03:48:28;16.10;99.90
11855;DHT22;5987;53.140;8.904;2022-08-11T03:51:51;16.10;99.90
11855;DHT22;5987;53.140;8.904;2022-08-11T03:55:07;16.10;99.90
11855;DHT22;5987;53.140;8.904;2022-08-11T03:58:39;16.00;99.90
11855;DHT22;5987;53.140;8.904;2022-08-11T04:02:30;16.00;99.90
11855;DHT22;5987;53.140;8.904;2022-08-11T04:14:35;16.10;99.90
11855;DHT22;5987;53.140;8.904;2022-08-11T04:22:43;16.00;99.90
11855;DHT22;5987;53.140;8.904;2022-08-11T04:26:37;16.00;99.90
11855;DHT22;5987;53.140;8.904;2022-08-11T04:30:05;16.00;99.90
11855;DHT22;5987;53.140;8.904;2022-08-11T04:33:49;15.90;99.90
11855;DHT22;5987;53.140;8.904;2022-08-11T04:37:31;16.00;99.90
11855;DHT22;5987;53.140;8.904;2022-08-11T04:45:37;16.10;99.90
11855;DHT22;5987;53.140;8.904;2022-08-11T04:53:25;16.10;99.90
11855;DHT22;5987;53.140;8.904;2022-08-11T04:57:05;16.20;99.90
11855;DHT22;5987;53.140;8.904;2022-08-11T05:00:50;16.30;99.90
11855;DHT22;5987;53.140;8.904;2022-08-11T05:04:31;16.40;99.90
11855;DHT22;5987;53.140;8.904;2022-08-11T05:12:18;16.70;99.90
11855;DHT22;5987;53.140;8.904;2022-08-11T05:15:46;16.80;99.90
11855;DHT22;5987;53.140;8.904;2022-08-11T05:19:15;16.90;99.90
11855;DHT22;5987;53.140;8.904;2022-08-11T05:22:43;17.00;99.90
11855;DHT22;5987;53.140;8.904;2022-08-11T05:26:12;17.00;99.90
11855;DHT22;5987;53.140;8.904;2022-08-11T05:29:56;17.20;99.90
11855;DHT22;5987;53.140;8.904;2022-08-11T05:33:29;17.50;99.90
11855;DHT22;5987;53.140;8.904;2022-08-11T05:37:01;17.70;99.90
11855;DHT22;5987;53.140;8.904;2022-08-11T05:40:27;18.10;99.90
11855;DHT22;5987;53.140;8.904;2022-08-11T05:43:54;18.70;99.90
11855;DHT22;5987;53.140;8.904;2022-08-11T05:47:24;19.20;99.90
11855;DHT22;5987;53.140;8.904;2022-08-11T05:50:52;19.50;99.90
11855;DHT22;5987;53.140;8.904;2022-08-11T05:54:17;19.80;99.90
11855;DHT22;5987;53.140;8.904;2022-08-11T05:57:39;20.00;99.90
11855;DHT22;5987;53.140;8.904;2022-08-11T06:00:52;20.40;99.90
11855;DHT22;5987;53.140;8.904;2022-08-11T06:03:57;20.70;99.90
11855;DHT22;5987;53.140;8.904;2022-08-11T06:07:26;21.00;99.90
11855;DHT22;5987;53.140;8.904;2022-08-11T06:10:50;21.20;99.90
11855;DHT22;5987;53.140;8.904;2022-08-11T06:13:55;21.50;99.90
11855;DHT22;5987;53.140;8.904;2022-08-11T06:17:02;21.70;99.90
11855;DHT22;5987;53.140;8.904;2022-08-11T06:20:09;21.80;99.90
11855;DHT22;5987;53.140;8.904;2022-08-11T06:23:16;22.00;99.90
11855;DHT22;5987;53.140;8.904;2022-08-11T06:26:21;22.20;99.90
11855;DHT22;5987;53.140;8.904;2022-08-11T06:29:27;22.30;99.90
11855;DHT22;5987;53.140;8.904;2022-08-11T06:32:51;22.30;99.90
11855;DHT22;5987;53.140;8.904;2022-08-11T06:36:02;22.40;99.90
11855;DHT22;5987;53.140;8.904;2022-08-11T06:39:19;22.10;99.90
11855;DHT22;5987;53.140;8.904;2022-08-11T06:42:35;22.50;99.90
11855;DHT22;5987;53.140;8.904;2022-08-11T06:45:50;22.70;99.90
11855;DHT22;5987;53.140;8.904;2022-08-11T06:49:05;22.90;99.90
11855;DHT22;5987;53.140;8.904;2022-08-11T06:52:34;23.00;99.90
11855;DHT22;5987;53.140;8.904;2022-08-11T06:55:41;23.20;99.90
11855;DHT22;5987;53.140;8.904;2022-08-11T06:59:05;23.40;99.90
11855;DHT22;5987;53.140;8.904;2022-08-11T07:02:30;23.50;99.90
11855;DHT22;5987;53.140;8.904;2022-08-11T07:05:44;23.60;99.90
11855;DHT22;5987;53.140;8.904;2022-08-11T07:09:13;23.50;99.90
11855;DHT22;5987;53.140;8.904;2022-08-11T07:12:50;23.20;99.90
11855;DHT22;5987;53.140;8.904;2022-08-11T07:16:38;23.60;99.90
11855;DHT22;5987;53.140;8.904;2022-08-11T07:19:50;24.10;99.90
11855;DHT22;5987;53.140;8.904;2022-08-11T07:23:15;24.40;99.90
11855;DHT22;5987;53.140;8.904;2022-08-11T07:26:40;24.60;99.90
11855;DHT22;5987;53.140;8.904;2022-08-11T07:30:10;25.00;99.90
11855;DHT22;5987;53.140;8.904;2022-08-11T07:33:21;25.10;99.90
11855;DHT22;5987;53.140;8.904;2022-08-11T07:36:52;25.10;99.90
11855;DHT22;5987;53.140;8.904;2022-08-11T07:39:59;25.30;99.90
11855;DHT22;5987;53.140;8.904;2022-08-11T07:43:05;25.50;99.90
11855;DHT22;5987;53.140;8.904;2022-08-11T07:46:11;25.60;99.90
11855;DHT22;5987;53.140;8.904;2022-08-11T07:49:35;25.80;97.30
11855;DHT22;5987;53.140;8.904;2022-08-11T07:52:59;26.10;97.60
11855;DHT22;5987;53.140;8.904;2022-08-11T07:56:05;26.40;95.30
11855;DHT22;5987;53.140;8.904;2022-08-11T07:59:16;26.60;94.60
11855;DHT22;5987;53.140;8.904;2022-08-11T08:03:01;26.90;93.60
11855;DHT22;5987;53.140;8.904;2022-08-11T08:06:25;27.10;92.60
11855;DHT22;5987;53.140;8.904;2022-08-11T08:09:48;27.30;92.00
11855;DHT22;5987;53.140;8.904;2022-08-11T08:13:15;27.00;92.80
11855;DHT22;5987;53.140;8.904;2022-08-11T08:16:38;27.00;91.10
11855;DHT22;5987;53.140;8.904;2022-08-11T08:20:01;27.10;91.10
11855;DHT22;5987;53.140;8.904;2022-08-11T08:23:08;27.50;90.20
11855;DHT22;5987;53.140;8.904;2022-08-11T08:26:14;27.70;90.20
11855;DHT22;5987;53.140;8.904;2022-08-11T08:29:36;28.00;85.00
11855;DHT22;5987;53.140;8.904;2022-08-11T08:32:59;28.30;84.40
11855;DHT22;5987;53.140;8.904;2022-08-11T08:36:05;28.40;83.90
11855;DHT22;5987;53.140;8.904;2022-08-11T08:39:18;28.20;86.60
11855;DHT22;5987;53.140;8.904;2022-08-11T08:42:25;28.60;84.50
11855;DHT22;5987;53.140;8.904;2022-08-11T08:45:33;28.90;82.90
11855;DHT22;5987;53.140;8.904;2022-08-11T08:48:41;29.00;81.70
11855;DHT22;5987;53.140;8.904;2022-08-11T08:51:53;29.20;80.10
11855;DHT22;5987;53.140;8.904;2022-08-11T08:55:20;29.40;79.20
11855;DHT22;5987;53.140;8.904;2022-08-11T08:58:25;29.50;79.50
11855;DHT22;5987;53.140;8.904;2022-08-11T09:01:35;29.80;78.10
11855;DHT22;5987;53.140;8.904;2022-08-11T09:04:45;29.90;76.40
11855;DHT22;5987;53.140;8.904;2022-08-11T09:07:53;30.10;73.20
11855;DHT22;5987;53.140;8.904;2022-08-11T09:11:00;29.80;70.60
11855;DHT22;5987;53.140;8.904;2022-08-11T09:14:24;29.50;73.00
11855;DHT22;5987;53.140;8.904;2022-08-11T09:17:52;29.60;71.20
11855;DHT22;5987;53.140;8.904;2022-08-11T09:21:04;29.70;70.10
11855;DHT22;5987;53.140;8.904;2022-08-11T09:24:11;29.90;69.90
11855;DHT22;5987;53.140;8.904;2022-08-11T09:27:34;30.20;69.30
11855;DHT22;5987;53.140;8.904;2022-08-11T09:30:51;30.30;66.70
11855;DHT22;5987;53.140;8.904;2022-08-11T09:33:57;30.50;66.70
11855;DHT22;5987;53.140;8.904;2022-08-11T09:37:02;30.60;64.90
11855;DHT22;5987;53.140;8.904;2022-08-11T09:40:47;30.00;65.20
11855;DHT22;5987;53.140;8.904;2022-08-11T09:43:57;30.10;63.10
11855;DHT22;5987;53.140;8.904;2022-08-11T09:47:23;30.20;62.40
11855;DHT22;5987;53.140;8.904;2022-08-11T09:50:31;29.90;60.60
11855;DHT22;5987;53.140;8.904;2022-08-11T09:53:38;29.50;61.20
11855;DHT22;5987;53.140;8.904;2022-08-11T09:57:05;29.20;60.00
11855;DHT22;5987;53.140;8.904;2022-08-11T10:00:30;28.70;60.00
11855;DHT22;5987;53.140;8.904;2022-08-11T10:03:41;28.60;62.10
11855;DHT22;5987;53.140;8.904;2022-08-11T10:06:52;28.60;62.40
11855;DHT22;5987;53.140;8.904;2022-08-11T10:10:08;28.70;62.00
11855;DHT22;5987;53.140;8.904;2022-08-11T10:13:17;28.60;60.30
11855;DHT22;5987;53.140;8.904;2022-08-11T10:16:48;28.50;62.00
11855;DHT22;5987;53.140;8.904;2022-08-11T10:19:54;28.60;61.90
11855;DHT22;5987;53.140;8.904;2022-08-11T10:23:07;28.80;62.80
11855;DHT22;5987;53.140;8.904;2022-08-11T10:26:31;28.90;60.60
11855;DHT22;5987;53.140;8.904;2022-08-11T10:29:56;28.80;59.40
11855;DHT22;5987;53.140;8.904;2022-08-11T10:33:20;28.70;60.20
11855;DHT22;5987;53.140;8.904;2022-08-11T10:36:58;28.60;60.60
11855;DHT22;5987;53.140;8.904;2022-08-11T10:40:06;28.60;60.70
11855;DHT22;5987;53.140;8.904;2022-08-11T10:43:12;28.60;60.70
11855;DHT22;5987;53.140;8.904;2022-08-11T10:46:38;28.50;60.10
11855;DHT22;5987;53.140;8.904;2022-08-11T10:50:01;28.50;59.60
11855;DHT22;5987;53.140;8.904;2022-08-11T10:53:24;28.50;59.80
11855;DHT22;5987;53.140;8.904;2022-08-11T10:56:46;28.50;60.70
11855;DHT22;5987;53.140;8.904;2022-08-11T11:00:09;28.50;59.60
11855;DHT22;5987;53.140;8.904;2022-08-11T11:03:18;28.50;59.70
11855;DHT22;5987;53.140;8.904;2022-08-11T11:06:28;28.70;59.20
11855;DHT22;5987;53.140;8.904;2022-08-11T11:09:41;28.70;61.40
11855;DHT22;5987;53.140;8.904;2022-08-11T11:12:53;28.70;59.90
11855;DHT22;5987;53.140;8.904;2022-08-11T11:16:16;28.80;58.40
11855;DHT22;5987;53.140;8.904;2022-08-11T11:19:42;28.90;57.00
11855;DHT22;5987;53.140;8.904;2022-08-11T11:22:48;29.00;57.40
11855;DHT22;5987;53.140;8.904;2022-08-11T11:29:50;28.90;58.90
11855;DHT22;5987;53.140;8.904;2022-08-11T11:33:07;29.00;59.50
11855;DHT22;5987;53.140;8.904;2022-08-11T11:36:29;29.10;59.60
11855;DHT22;5987;53.140;8.904;2022-08-11T11:39:44;29.10;59.40
11855;DHT22;5987;53.140;8.904;2022-08-11T11:42:51;29.10;58.20
11855;DHT22;5987;53.140;8.904;2022-08-11T11:45:59;29.00;60.00
11855;DHT22;5987;53.140;8.904;2022-08-11T11:49:03;29.00;58.10
11855;DHT22;5987;53.140;8.904;2022-08-11T11:52:20;29.00;60.10
11855;DHT22;5987;53.140;8.904;2022-08-11T11:55:25;28.90;58.80
11855;DHT22;5987;53.140;8.904;2022-08-11T11:58:30;29.00;58.40
11855;DHT22;5987;53.140;8.904;2022-08-11T12:01:52;29.10;58.00
11855;DHT22;5987;53.140;8.904;2022-08-11T12:04:58;29.20;57.40
11855;DHT22;5987;53.140;8.904;2022-08-11T12:08:05;29.20;56.00
11855;DHT22;5987;53.140;8.904;2022-08-11T12:11:18;29.10;57.50
11855;DHT22;5987;53.140;8.904;2022-08-11T12:14:44;29.20;56.50
11855;DHT22;5987;53.140;8.904;2022-08-11T12:17:48;29.20;55.20
11855;DHT22;5987;53.140;8.904;2022-08-11T12:20:53;29.40;56.00
11855;DHT22;5987;53.140;8.904;2022-08-11T12:24:00;29.40;56.70
11855;DHT22;5987;53.140;8.904;2022-08-11T12:27:23;29.40;56.50
11855;DHT22;5987;53.140;8.904;2022-08-11T12:30:29;29.30;56.60
11855;DHT22;5987;53.140;8.904;2022-08-11T12:33:33;29.50;56.90
11855;DHT22;5987;53.140;8.904;2022-08-11T12:36:41;29.50;56.70
11855;DHT22;5987;53.140;8.904;2022-08-11T12:39:53;29.60;56.90
11855;DHT22;5987;53.140;8.904;2022-08-11T12:43:42;29.60;55.80
11855;DHT22;5987;53.140;8.904;2022-08-11T12:47:07;29.50;56.40
11855;DHT22;5987;53.140;8.904;2022-08-11T12:50:12;29.50;55.80
11855;DHT22;5987;53.140;8.904;2022-08-11T12:53:35;29.60;55.40
11855;DHT22;5987;53.140;8.904;2022-08-11T12:56:50;29.80;53.80
11855;DHT22;5987;53.140;8.904;2022-08-11T13:00:37;29.80;54.60
11855;DHT22;5987;53.140;8.904;2022-08-11T13:03:58;29.80;54.60
11855;DHT22;5987;53.140;8.904;2022-08-11T13:07:20;29.90;54.10
11855;DHT22;5987;53.140;8.904;2022-08-11T13:10:25;29.80;54.30
11855;DHT22;5987;53.140;8.904;2022-08-11T13:13:47;29.80;54.50
11855;DHT22;5987;53.140;8.904;2022-08-11T13:16:59;29.60;54.50
11855;DHT22;5987;53.140;8.904;2022-08-11T13:20:22;29.50;55.20
11855;DHT22;5987;53.140;8.904;2022-08-11T13:23:27;29.60;55.00
11855;DHT22;5987;53.140;8.904;2022-08-11T13:26:34;29.60;55.50
11855;DHT22;5987;53.140;8.904;2022-08-11T13:29:52;29.70;55.50
11855;DHT22;5987;53.140;8.904;2022-08-11T13:33:17;29.80;54.30
11855;DHT22;5987;53.140;8.904;2022-08-11T13:36:23;29.90;54.20
11855;DHT22;5987;53.140;8.904;2022-08-11T13:39:31;29.90;54.60
11855;DHT22;5987;53.140;8.904;2022-08-11T13:42:37;29.80;55.10
11855;DHT22;5987;53.140;8.904;2022-08-11T13:45:44;29.80;55.30
11855;DHT22;5987;53.140;8.904;2022-08-11T13:48:50;29.80;55.40
11855;DHT22;5987;53.140;8.904;2022-08-11T13:52:03;29.90;54.80
11855;DHT22;5987;53.140;8.904;2022-08-11T13:55:10;30.10;54.30
11855;DHT22;5987;53.140;8.904;2022-08-11T13:58:42;30.10;53.60
11855;DHT22;5987;53.140;8.904;2022-08-11T14:01:58;30.10;53.40
11855;DHT22;5987;53.140;8.904;2022-08-11T14:05:26;30.20;54.00
11855;DHT22;5987;53.140;8.904;2022-08-11T14:08:34;30.20;54.30
11855;DHT22;5987;53.140;8.904;2022-08-11T14:11:48;30.20;54.60
11855;DHT22;5987;53.140;8.904;2022-08-11T14:15:28;30.10;54.10
11855;DHT22;5987;53.140;8.904;2022-08-11T14:18:44;30.20;54.20
11855;DHT22;5987;53.140;8.904;2022-08-11T14:21:51;30.20;54.40
11855;DHT22;5987;53.140;8.904;2022-08-11T14:25:10;30.20;53.80
11855;DHT22;5987;53.140;8.904;2022-08-11T14:28:16;30.30;53.90
11855;DHT22;5987;53.140;8.904;2022-08-11T14:31:38;30.30;54.30
11855;DHT22;5987;53.140;8.904;2022-08-11T14:34:48;30.50;54.30
11855;DHT22;5987;53.140;8.904;2022-08-11T14:37:52;30.60;53.80
11855;DHT22;5987;53.140;8.904;2022-08-11T14:40:58;30.60;54.00
11855;DHT22;5987;53.140;8.904;2022-08-11T14:44:20;30.50;53.20
11855;DHT22;5987;53.140;8.904;2022-08-11T14:47:43;30.50;52.80
11855;DHT22;5987;53.140;8.904;2022-08-11T14:50:52;30.50;54.10
11855;DHT22;5987;53.140;8.904;2022-08-11T14:53:56;30.60;54.20
11855;DHT22;5987;53.140;8.904;2022-08-11T14:57:15;30.60;54.10
11855;DHT22;5987;53.140;8.904;2022-08-11T15:00:40;30.60;53.80
11855;DHT22;5987;53.140;8.904;2022-08-11T15:03:45;30.40;53.60
11855;DHT22;5987;53.140;8.904;2022-08-11T15:07:10;30.50;53.40
11855;DHT22;5987;53.140;8.904;2022-08-11T15:10:18;30.50;53.90
11855;DHT22;5987;53.140;8.904;2022-08-11T15:13:23;30.50;53.70
11855;DHT22;5987;53.140;8.904;2022-08-11T15:16:28;30.60;53.60
11855;DHT22;5987;53.140;8.904;2022-08-11T15:19:50;30.50;53.80
11855;DHT22;5987;53.140;8.904;2022-08-11T15:23:14;30.60;53.20
11855;DHT22;5987;53.140;8.904;2022-08-11T15:26:38;30.70;52.60
11855;DHT22;5987;53.140;8.904;2022-08-11T15:30:02;30.60;52.50
11855;DHT22;5987;53.140;8.904;2022-08-11T15:33:35;30.60;52.70
11855;DHT22;5987;53.140;8.904;2022-08-11T15:37:02;30.70;53.40
11855;DHT22;5987;53.140;8.904;2022-08-11T15:40:30;30.70;53.00
11855;DHT22;5987;53.140;8.904;2022-08-11T15:43:59;30.60;53.30
11855;DHT22;5987;53.140;8.904;2022-08-11T15:47:51;30.60;53.30
11855;DHT22;5987;53.140;8.904;2022-08-11T15:51:09;30.60;52.90
11855;DHT22;5987;53.140;8.904;2022-08-11T15:54:17;30.70;52.20
11855;DHT22;5987;53.140;8.904;2022-08-11T15:57:27;30.50;52.30
11855;DHT22;5987;53.140;8.904;2022-08-11T16:00:50;30.50;52.90
11855;DHT22;5987;53.140;8.904;2022-08-11T16:04:18;30.40;52.90
11855;DHT22;5987;53.140;8.904;2022-08-11T16:07:31;30.40;53.00
11855;DHT22;5987;53.140;8.904;2022-08-11T16:10:41;30.50;52.40
11855;DHT22;5987;53.140;8.904;2022-08-11T16:13:52;30.40;53.40
11855;DHT22;5987;53.140;8.904;2022-08-11T16:17:14;30.40;53.70
11855;DHT22;5987;53.140;8.904;2022-08-11T16:20:23;30.40;53.20
11855;DHT22;5987;53.140;8.904;2022-08-11T16:23:29;30.40;52.80
11855;DHT22;5987;53.140;8.904;2022-08-11T16:26:35;30.40;53.70
11855;DHT22;5987;53.140;8.904;2022-08-11T16:30:06;30.40;53.40
11855;DHT22;5987;53.140;8.904;2022-08-11T16:33:12;30.40;53.40
11855;DHT22;5987;53.140;8.904;2022-08-11T16:36:37;30.30;53.50
11855;DHT22;5987;53.140;8.904;2022-08-11T16:39:59;30.20;53.40
11855;DHT22;5987;53.140;8.904;2022-08-11T16:43:06;30.20;53.90
11855;DHT22;5987;53.140;8.904;2022-08-11T16:46:31;30.10;54.20
11855;DHT22;5987;53.140;8.904;2022-08-11T16:49:56;30.00;54.30
11855;DHT22;5987;53.140;8.904;2022-08-11T16:53:01;29.90;54.40
11855;DHT22;5987;53.140;8.904;2022-08-11T16:56:06;29.90;54.50
11855;DHT22;5987;53.140;8.904;2022-08-11T16:59:19;29.80;54.90
11855;DHT22;5987;53.140;8.904;2022-08-11T17:02:34;29.70;54.80
11855;DHT22;5987;53.140;8.904;2022-08-11T17:06:00;29.70;55.10
11855;DHT22;5987;53.140;8.904;2022-08-11T17:09:25;29.70;55.30
11855;DHT22;5987;53.140;8.904;2022-08-11T17:12:50;29.60;55.90
11855;DHT22;5987;53.140;8.904;2022-08-11T17:16:18;29.60;55.50
11855;DHT22;5987;53.140;8.904;2022-08-11T17:19:30;29.40;55.70
11855;DHT22;5987;53.140;8.904;2022-08-11T17:22:57;29.40;56.30
11855;DHT22;5987;53.140;8.904;2022-08-11T17:26:27;29.30;56.60
11855;DHT22;5987;53.140;8.904;2022-08-11T17:29:51;29.20;56.90
11855;DHT22;5987;53.140;8.904;2022-08-11T17:32:56;29.10;57.30
11855;DHT22;5987;53.140;8.904;2022-08-11T17:36:19;29.00;57.60
11855;DHT22;5987;53.140;8.904;2022-08-11T17:39:29;29.00;57.70
11855;DHT22;5987;53.140;8.904;2022-08-11T17:42:35;28.80;58.40
11855;DHT22;5987;53.140;8.904;2022-08-11T17:45:58;28.80;58.10
11855;DHT22;5987;53.140;8.904;2022-08-11T17:49:19;28.70;58.50
11855;DHT22;5987;53.140;8.904;2022-08-11T17:52:27;28.70;59.10
11855;DHT22;5987;53.140;8.904;2022-08-11T17:55:49;28.60;59.50
11855;DHT22;5987;53.140;8.904;2022-08-11T17:59:14;28.50;60.40
11855;DHT22;5987;53.140;8.904;2022-08-11T18:02:39;28.40;60.60
11855;DHT22;5987;53.140;8.904;2022-08-11T18:06:04;28.20;61.20
11855;DHT22;5987;53.140;8.904;2022-08-11T18:09:17;28.10;61.90
11855;DHT22;5987;53.140;8.904;2022-08-11T18:12:41;28.00;63.00
11855;DHT22;5987;53.140;8.904;2022-08-11T18:16:04;27.90;62.50
11855;DHT22;5987;53.140;8.904;2022-08-11T18:19:26;27.80;62.90
11855;DHT22;5987;53.140;8.904;2022-08-11T18:22:48;27.70;62.70
11855;DHT22;5987;53.140;8.904;2022-08-11T18:26:16;27.60;63.30
11855;DHT22;5987;53.140;8.904;2022-08-11T18:29:42;27.50;62.70
11855;DHT22;5987;53.140;8.904;2022-08-11T18:33:06;27.40;62.80
11855;DHT22;5987;53.140;8.904;2022-08-11T18:36:54;27.20;63.50
11855;DHT22;5987;53.140;8.904;2022-08-11T18:40:28;27.10;64.30
11855;DHT22;5987;53.140;8.904;2022-08-11T18:43:55;27.00;64.70
11855;DHT22;5987;53.140;8.904;2022-08-11T18:47:21;26.80;65.30
11855;DHT22;5987;53.140;8.904;2022-08-11T18:50:45;26.70;65.70
11855;DHT22;5987;53.140;8.904;2022-08-11T18:54:27;26.60;65.30
11855;DHT22;5987;53.140;8.904;2022-08-11T18:57:55;26.40;65.80
11855;DHT22;5987;53.140;8.904;2022-08-11T19:01:22;26.40;66.10
11855;DHT22;5987;53.140;8.904;2022-08-11T19:04:47;26.30;66.90
11855;DHT22;5987;53.140;8.904;2022-08-11T19:08:10;26.10;67.00
11855;DHT22;5987;53.140;8.904;2022-08-11T19:11:32;26.00;67.40
11855;DHT22;5987;53.140;8.904;2022-08-11T19:15:02;25.90;67.90
11855;DHT22;5987;53.140;8.904;2022-08-11T19:18:29;25.80;67.90
11855;DHT22;5987;53.140;8.904;2022-08-11T19:21:53;25.70;68.50
11855;DHT22;5987;53.140;8.904;2022-08-11T19:25:17;25.60;68.80
11855;DHT22;5987;53.140;8.904;2022-08-11T19:28:45;25.50;68.80
11855;DHT22;5987;53.140;8.904;2022-08-11T19:32:08;25.40;69.20
11855;DHT22;5987;53.140;8.904;2022-08-11T19:35:33;25.40;69.10
11855;DHT22;5987;53.140;8.904;2022-08-11T19:38:55;25.20;69.40
11855;DHT22;5987;53.140;8.904;2022-08-11T19:42:18;25.20;69.50
11855;DHT22;5987;53.140;8.904;2022-08-11T19:45:42;25.10;70.30
11855;DHT22;5987;53.140;8.904;2022-08-11T19:49:06;25.00;71.10
11855;DHT22;5987;53.140;8.904;2022-08-11T19:52:31;24.90;71.40
11855;DHT22;5987;53.140;8.904;2022-08-11T19:55:54;24.80;71.90
11855;DHT22;5987;53.140;8.904;2022-08-11T19:59:17;24.70;72.00
11855;DHT22;5987;53.140;8.904;2022-08-11T20:02:39;24.60;72.70
11855;DHT22;5987;53.140;8.904;2022-08-11T20:06:04;24.40;73.30
11855;DHT22;5987;53.140;8.904;2022-08-11T20:09:28;24.30;73.90
11855;DHT22;5987;53.140;8.904;2022-08-11T20:13:07;24.30;74.50
11855;DHT22;5987;53.140;8.904;2022-08-11T20:16:31;24.10;75.30
11855;DHT22;5987;53.140;8.904;2022-08-11T20:19:54;24.00;75.60
11855;DHT22;5987;53.140;8.904;2022-08-11T20:23:17;23.90;76.30
11855;DHT22;5987;53.140;8.904;2022-08-11T20:26:40;23.90;76.70
11855;DHT22;5987;53.140;8.904;2022-08-11T20:30:04;23.80;76.40
11855;DHT22;5987;53.140;8.904;2022-08-11T20:33:25;23.80;76.60
11855;DHT22;5987;53.140;8.904;2022-08-11T20:36:48;23.70;76.90
11855;DHT22;5987;53.140;8.904;2022-08-11T20:40:12;23.60;77.20
11855;DHT22;5987;53.140;8.904;2022-08-11T20:43:38;23.50;77.90
11855;DHT22;5987;53.140;8.904;2022-08-11T20:47:11;23.50;78.20
11855;DHT22;5987;53.140;8.904;2022-08-11T20:50:55;23.40;78.80
11855;DHT22;5987;53.140;8.904;2022-08-11T20:54:18;23.30;79.40
11855;DHT22;5987;53.140;8.904;2022-08-11T20:57:46;23.20;80.00
11855;DHT22;5987;53.140;8.904;2022-08-11T21:01:21;23.10;80.50
11855;DHT22;5987;53.140;8.904;2022-08-11T21:04:44;23.00;80.70
11855;DHT22;5987;53.140;8.904;2022-08-11T21:08:06;22.90;81.20
11855;DHT22;5987;53.140;8.904;2022-08-11T21:11:29;22.90;81.50
11855;DHT22;5987;53.140;8.904;2022-08-11T21:14:54;22.70;82.20
11855;DHT22;5987;53.140;8.904;2022-08-11T21:18:39;22.70;82.50
11855;DHT22;5987;53.140;8.904;2022-08-11T21:22:03;22.60;83.30
11855;DHT22;5987;53.140;8.904;2022-08-11T21:25:44;22.50;83.50
11855;DHT22;5987;53.140;8.904;2022-08-11T21:29:08;22.50;84.20
11855;DHT22;5987;53.140;8.904;2022-08-11T21:32:32;22.40;84.30
11855;DHT22;5987;53.140;8.904;2022-08-11T21:35:56;22.40;84.60
11855;DHT22;5987;53.140;8.904;2022-08-11T21:39:19;22.40;85.80
11855;DHT22;5987;53.140;8.904;2022-08-11T21:42:43;22.30;85.10
11855;DHT22;5987;53.140;8.904;2022-08-11T21:46:08;22.20;85.60
11855;DHT22;5987;53.140;8.904;2022-08-11T21:49:35;22.20;85.90
11855;DHT22;5987;53.140;8.904;2022-08-11T21:53:01;22.20;86.10
11855;DHT22;5987;53.140;8.904;2022-08-11T21:56:24;22.10;86.30
11855;DHT22;5987;53.140;8.904;2022-08-11T21:59:51;22.10;86.20
11855;DHT22;5987;53.140;8.904;2022-08-11T22:03:14;22.00;86.80
11855;DHT22;5987;53.140;8.904;2022-08-11T22:06:50;21.90;87.10
11855;DHT22;5987;53.140;8.904;2022-08-11T22:10:14;21.90;88.20
11855;DHT22;5987;53.140;8.904;2022-08-11T22:13:43;21.80;88.00
11855;DHT22;5987;53.140;8.904;2022-08-11T22:17:09;21.70;88.20
11855;DHT22;5987;53.140;8.904;2022-08-11T22:20:31;21.70;88.90